createdAt,value
2022-07-29T00:00:11.775Z,100969.41
2022-07-29T00:00:58.618Z,100965.94
2022-07-29T00:01:45.126Z,100966.47
2022-07-29T00:02:33.080Z,100969.44
2022-07-29T00:03:19.713Z,100967.81
2022-07-29T00:04:06.304Z,100965.69
2022-07-29T00:04:55.322Z,100969.44
2022-07-29T00:05:42.997Z,100967.28
2022-07-29T00:06:29.562Z,100963.53
2022-07-29T00:07:16.171Z,100961.13
2022-07-29T00:08:02.896Z,100960.06
2022-07-29T00:08:49.476Z,100958.97
2022-07-29T00:09:50.407Z,100961.69
2022-07-29T00:10:38.443Z,100955.50
2022-07-29T00:11:25.015Z,100955.22
2022-07-29T00:12:11.455Z,100958.47
2022-07-29T00:12:58.272Z,100959.53
2022-07-29T00:13:49.098Z,100963.84
2022-07-29T00:14:37.770Z,100958.19
2022-07-29T00:15:24.346Z,100955.50
2022-07-29T00:16:10.909Z,100960.88
2022-07-29T00:16:57.546Z,100956.84
2022-07-29T00:17:44.536Z,100957.09
2022-07-29T00:18:31.280Z,100963.28
2022-07-29T00:19:17.778Z,100964.09
2022-07-29T00:20:05.405Z,100964.09
2022-07-29T00:20:51.877Z,100960.34
2022-07-29T00:21:38.606Z,100955.75
2022-07-29T00:22:25.103Z,100954.44
2022-07-29T00:23:13.569Z,100958.16
2022-07-29T00:24:00.224Z,100955.22
2022-07-29T00:24:49.600Z,100946.09
2022-07-29T00:25:36.485Z,100955.47
2022-07-29T00:26:24.069Z,100952.00
2022-07-29T00:27:10.709Z,100943.41
2022-07-29T00:27:57.461Z,100950.09
2022-07-29T00:28:43.958Z,100952.78
2022-07-29T00:29:34.143Z,100948.50
2022-07-29T00:30:21.230Z,100949.03
2022-07-29T00:31:08.939Z,100947.97
2022-07-29T00:31:55.771Z,100948.75
2022-07-29T00:32:42.511Z,100945.00
2022-07-29T00:33:29.960Z,100944.47
2022-07-29T00:34:35.400Z,100941.78
2022-07-29T00:35:40.516Z,100943.94
2022-07-29T00:36:27.217Z,100939.94
2022-07-29T00:37:13.777Z,100940.22
2022-07-29T00:38:00.371Z,100940.22
2022-07-29T00:38:50.468Z,100930.81
2022-07-29T00:39:36.952Z,100936.19
2022-07-29T00:40:23.860Z,100935.94
2022-07-29T00:41:10.569Z,100931.91
2022-07-29T00:41:57.047Z,100937.03
2022-07-29T00:42:48.235Z,100926.56
2022-07-29T00:43:34.970Z,100931.66
2022-07-29T00:44:21.433Z,100942.66
2022-07-29T00:45:08.135Z,100937.28
2022-07-29T00:45:54.576Z,100939.97
2022-07-29T00:46:41.254Z,100937.81
2022-07-29T00:47:27.900Z,100939.44
2022-07-29T00:48:15.308Z,100939.44
2022-07-29T00:49:02.019Z,100932.19
2022-07-29T00:49:48.807Z,100938.88
2022-07-29T00:50:37.194Z,100935.16
2022-07-29T00:51:23.841Z,100932.47
2022-07-29T00:52:12.258Z,100930.06
2022-07-29T00:52:59.647Z,100931.41
2022-07-29T00:53:47.874Z,100937.31
2022-07-29T00:54:39.134Z,100925.75
2022-07-29T00:55:32.077Z,100930.84
2022-07-29T00:56:18.597Z,100927.09
2022-07-29T00:57:08.281Z,100929.50
2022-07-29T00:57:55.940Z,100935.94
2022-07-29T00:58:44.767Z,100926.03
2022-07-29T00:59:35.103Z,100926.03
2022-07-29T01:00:25.579Z,100920.38
2022-07-29T01:01:12.258Z,100922.28
2022-07-29T01:01:59.022Z,100909.09
2022-07-29T01:02:49.115Z,100909.38
2022-07-29T01:03:35.611Z,100915.28
2022-07-29T01:04:23.035Z,100911.78
2022-07-29T01:05:09.887Z,100916.09
2022-07-29T01:05:56.999Z,100906.19
2022-07-29T01:06:43.934Z,100909.41
2022-07-29T01:07:34.970Z,100904.84
2022-07-29T01:08:23.860Z,100912.38
2022-07-29T01:09:13.907Z,100918.00
2022-07-29T01:10:02.938Z,100911.81
2022-07-29T01:11:08.246Z,100908.34
2022-07-29T01:11:55.302Z,100909.44
2022-07-29T01:12:45.650Z,100905.13
2022-07-29T01:13:34.267Z,100913.47
2022-07-29T01:14:22.657Z,100905.44
2022-07-29T01:15:09.547Z,100903.25
2022-07-29T01:16:04.758Z,100910.50
2022-07-29T01:17:02.492Z,100906.75
2022-07-29T01:18:02.536Z,100896.56
2022-07-29T01:18:59.372Z,100900.84
2022-07-29T01:20:02.655Z,100898.44
2022-07-29T01:21:07.126Z,100901.94
2022-07-29T01:22:07.396Z,100899.25
2022-07-29T01:23:31.389Z,100903.78
2022-07-29T01:24:59.106Z,100904.88
2022-07-29T01:26:22.550Z,100900.84
2022-07-29T01:27:33.609Z,100901.41
2022-07-29T01:28:44.792Z,100903.81
2022-07-29T01:29:42.271Z,100898.44
2022-07-29T01:30:33.326Z,100894.44
2022-07-29T01:31:29.092Z,100885.84
2022-07-29T01:32:28.670Z,100897.38
2022-07-29T01:33:40.589Z,100895.22
2022-07-29T01:34:39.706Z,100886.38
2022-07-29T01:35:37.153Z,100887.44
2022-07-29T01:36:40.244Z,100888.25
2022-07-29T01:37:35.405Z,100892.84
2022-07-29T01:38:28.369Z,100885.56
2022-07-29T01:39:31.035Z,100882.91
2022-07-29T01:40:24.870Z,100881.31
2022-07-29T01:41:17.547Z,100881.56
2022-07-29T01:42:27.950Z,100880.50
2022-07-29T01:43:20.009Z,100885.59
2022-07-29T01:44:18.970Z,100889.09
2022-07-29T01:45:34.493Z,100883.72
2022-07-29T01:46:29.867Z,100875.13
2022-07-29T01:47:21.615Z,100877.28
2022-07-29T01:48:14.517Z,100878.38
2022-07-29T01:49:21.086Z,100881.03
2022-07-29T01:50:13.370Z,100871.66
2022-07-29T01:51:08.477Z,100874.34
2022-07-29T01:52:12.091Z,100874.59
2022-07-29T01:53:03.041Z,100874.09
2022-07-29T01:54:16.316Z,100873.25
2022-07-29T01:55:12.746Z,100867.66
2022-07-29T01:56:02.661Z,100870.59
2022-07-29T01:56:54.489Z,100867.66
2022-07-29T01:57:45.633Z,100863.88
2022-07-29T01:58:36.611Z,100866.84
2022-07-29T01:59:26.370Z,100862.81
2022-07-29T02:00:15.552Z,100863.63
2022-07-29T02:01:04.640Z,100863.09
2022-07-29T02:01:54.677Z,100859.88
2022-07-29T02:02:45.097Z,100865.22
2022-07-29T02:03:35.679Z,100866.59
2022-07-29T02:04:29.875Z,100860.94
2022-07-29T02:05:21.518Z,100869.25
2022-07-29T02:06:12.148Z,100867.41
2022-07-29T02:07:03.708Z,100872.22
2022-07-29T02:07:53.966Z,100866.59
2022-07-29T02:08:42.230Z,100867.94
2022-07-29T02:09:32.409Z,100880.28
2022-07-29T02:10:26.301Z,100879.47
2022-07-29T02:11:12.921Z,100870.63
2022-07-29T02:12:02.490Z,100881.63
2022-07-29T02:12:51.206Z,100883.22
2022-07-29T02:13:39.280Z,100878.66
2022-07-29T02:14:29.530Z,100878.94
2022-07-29T02:15:19.018Z,100877.31
2022-07-29T02:16:09.348Z,100877.31
2022-07-29T02:16:59.381Z,100880.28
2022-07-29T02:17:57.645Z,100881.34
2022-07-29T02:18:48.406Z,100875.72
2022-07-29T02:19:39.383Z,100880.81
2022-07-29T02:20:27.254Z,100884.03
2022-07-29T02:21:20.473Z,100878.41
2022-07-29T02:22:09.800Z,100874.38
2022-07-29T02:22:59.569Z,100871.97
2022-07-29T02:23:51.151Z,100872.25
2022-07-29T02:24:41.428Z,100870.38
2022-07-29T02:25:37.208Z,100866.06
2022-07-29T02:26:27.991Z,100867.69
2022-07-29T02:27:16.895Z,100865.03
2022-07-29T02:28:05.759Z,100861.00
2022-07-29T02:28:57.211Z,100866.66
2022-07-29T02:29:47.744Z,100866.63
2022-07-29T02:30:39.892Z,100862.56
2022-07-29T02:31:33.388Z,100872.22
2022-07-29T02:32:23.453Z,100865.53
2022-07-29T02:33:15.214Z,100865.53
2022-07-29T02:34:05.994Z,100859.09
2022-07-29T02:34:54.692Z,100862.84
2022-07-29T02:35:44.121Z,100860.72
2022-07-29T02:36:33.656Z,100859.13
2022-07-29T02:37:22.453Z,100859.63
2022-07-29T02:38:31.929Z,100864.47
2022-07-29T02:39:20.529Z,100859.91
2022-07-29T02:40:12.209Z,100866.06
2022-07-29T02:41:01.126Z,100861.81
2022-07-29T02:42:04.634Z,100859.66
2022-07-29T02:42:51.313Z,100855.91
2022-07-29T02:43:40.258Z,100852.94
2022-07-29T02:44:32.651Z,100857.75
2022-07-29T02:45:20.992Z,100867.69
2022-07-29T02:46:29.245Z,100861.25
2022-07-29T02:47:42.194Z,100864.22
2022-07-29T02:48:37.855Z,100854.28
2022-07-29T02:49:47.736Z,100859.91
2022-07-29T02:50:40.308Z,100851.88
2022-07-29T02:51:41.478Z,100860.44
2022-07-29T02:52:56.654Z,100861.25
2022-07-29T02:53:52.413Z,100855.91
2022-07-29T02:54:41.149Z,100862.84
2022-07-29T02:55:37.874Z,100856.41
2022-07-29T02:56:35.896Z,100859.91
2022-07-29T02:57:55.012Z,100865.53
2022-07-29T02:58:47.840Z,100866.34
2022-07-29T02:59:38.437Z,100872.50
2022-07-29T03:00:29.948Z,100869.25
2022-07-29T03:01:26.591Z,100867.41
2022-07-29T03:02:16.167Z,100872.22
2022-07-29T03:03:08.342Z,100866.06
2022-07-29T03:03:56.436Z,100873.56
2022-07-29T03:04:45.467Z,100885.88
2022-07-29T03:05:32.373Z,100882.41
2022-07-29T03:06:28.100Z,100889.91
2022-07-29T03:07:21.472Z,100891.78
2022-07-29T03:08:11.447Z,100890.19
2022-07-29T03:09:00.971Z,100890.44
2022-07-29T03:09:51.763Z,100891.25
2022-07-29T03:10:41.263Z,100890.69
2022-07-29T03:11:46.183Z,100891.78
2022-07-29T03:12:36.487Z,100891.50
2022-07-29T03:13:25.504Z,100889.09
2022-07-29T03:14:13.859Z,100893.38
2022-07-29T03:15:02.821Z,100887.72
2022-07-29T03:15:51.060Z,100898.19
2022-07-29T03:16:41.246Z,100896.59
2022-07-29T03:17:28.735Z,100892.56
2022-07-29T03:18:16.242Z,100900.34
2022-07-29T03:19:04.728Z,100902.75
2022-07-29T03:19:51.667Z,100895.53
2022-07-29T03:20:39.701Z,100903.00
2022-07-29T03:21:26.275Z,100905.69
2022-07-29T03:22:13.131Z,100904.06
2022-07-29T03:22:59.773Z,100909.16
2022-07-29T03:23:46.365Z,100912.66
2022-07-29T03:24:35.611Z,100912.66
2022-07-29T03:25:22.276Z,100911.03
2022-07-29T03:26:08.909Z,100915.34
2022-07-29T03:26:57.372Z,100916.94
2022-07-29T03:27:45.261Z,100913.22
2022-07-29T03:28:31.978Z,100921.75
2022-07-29T03:29:20.483Z,100908.38
2022-07-29T03:30:08.965Z,100916.97
2022-07-29T03:30:55.573Z,100911.06
2022-07-29T03:31:43.756Z,100907.88
2022-07-29T03:32:30.341Z,100902.75
2022-07-29T03:33:17.462Z,100903.03
2022-07-29T03:34:04.011Z,100903.56
2022-07-29T03:34:50.567Z,100907.88
2022-07-29T03:35:37.093Z,100899.84
2022-07-29T03:36:23.815Z,100905.19
2022-07-29T03:37:10.321Z,100904.38
2022-07-29T03:37:56.820Z,100904.63
2022-07-29T03:38:46.634Z,100898.22
2022-07-29T03:39:40.960Z,100900.34
2022-07-29T03:40:35.180Z,100908.38
2022-07-29T03:41:25.150Z,100904.38
2022-07-29T03:42:16.708Z,100907.03
2022-07-29T03:43:06.719Z,100907.31
2022-07-29T03:43:55.869Z,100911.63
2022-07-29T03:44:46.529Z,100908.94
2022-07-29T03:45:36.059Z,100912.44
2022-07-29T03:46:27.329Z,100913.78
2022-07-29T03:47:18.461Z,100913.22
2022-07-29T03:48:11.402Z,100917.53
2022-07-29T03:49:03.977Z,100918.09
2022-07-29T03:49:55.061Z,100920.75
2022-07-29T03:50:42.372Z,100917.53
2022-07-29T03:51:33.150Z,100927.47
2022-07-29T03:52:22.296Z,100923.44
2022-07-29T03:53:08.808Z,100921.56
2022-07-29T03:53:55.790Z,100922.38
2022-07-29T03:54:43.044Z,100924.50
2022-07-29T03:55:36.695Z,100922.88
2022-07-29T03:56:24.900Z,100913.25
2022-07-29T03:57:13.134Z,100918.66
2022-07-29T03:58:03.224Z,100922.41
2022-07-29T03:58:52.499Z,100917.84
2022-07-29T03:59:40.934Z,100917.84
2022-07-29T04:00:29.434Z,100919.44
2022-07-29T04:01:18.738Z,100920.22
2022-07-29T04:02:09.176Z,100913.53
2022-07-29T04:02:55.752Z,100909.25
2022-07-29T04:03:42.496Z,100914.34
2022-07-29T04:04:29.533Z,100911.94
2022-07-29T04:05:17.418Z,100905.22
2022-07-29T04:06:07.139Z,100913.53
2022-07-29T04:06:53.612Z,100911.13
2022-07-29T04:07:41.336Z,100915.94
2022-07-29T04:08:27.930Z,100923.47
2022-07-29T04:09:14.839Z,100914.09
2022-07-29T04:10:01.677Z,100915.44
2022-07-29T04:10:48.615Z,100922.91
2022-07-29T04:11:59.813Z,100934.97
2022-07-29T04:12:43.175Z,100924.78
2022-07-29T04:13:29.710Z,100924.50
2022-07-29T04:14:16.504Z,100923.97
2022-07-29T04:15:06.567Z,100924.47
2022-07-29T04:15:53.101Z,100925.00
2022-07-29T04:16:39.650Z,100924.19
2022-07-29T04:17:26.248Z,100921.78
2022-07-29T04:18:12.940Z,100921.78
2022-07-29T04:19:00.220Z,100934.38
2022-07-29T04:19:46.727Z,100931.97
2022-07-29T04:20:33.223Z,100933.03
2022-07-29T04:21:19.724Z,100924.19
2022-07-29T04:22:06.272Z,100938.38
2022-07-29T04:22:52.700Z,100934.38
2022-07-29T04:23:47.541Z,100935.16
2022-07-29T04:24:42.846Z,100933.00
2022-07-29T04:25:30.793Z,100937.03
2022-07-29T04:26:18.517Z,100935.41
2022-07-29T04:27:05.116Z,100929.25
2022-07-29T04:28:03.903Z,100927.91
2022-07-29T04:28:50.397Z,100934.38
2022-07-29T04:29:36.862Z,100929.78
2022-07-29T04:30:43.323Z,100928.72
2022-07-29T04:31:29.982Z,100927.66
2022-07-29T04:32:16.562Z,100933.00
2022-07-29T04:33:05.914Z,100932.75
2022-07-29T04:33:52.461Z,100927.09
2022-07-29T04:34:39.126Z,100930.84
2022-07-29T04:35:25.716Z,100930.84
2022-07-29T04:36:29.277Z,100932.19
2022-07-29T04:37:16.553Z,100927.09
2022-07-29T04:38:04.092Z,100924.94
2022-07-29T04:38:50.961Z,100924.41
2022-07-29T04:39:37.441Z,100926.00
2022-07-29T04:40:24.109Z,100924.41
2022-07-29T04:41:10.757Z,100920.13
2022-07-29T04:41:57.731Z,100913.97
2022-07-29T04:42:46.754Z,100921.22
2022-07-29T04:43:36.743Z,100917.75
2022-07-29T04:44:28.555Z,100924.72
2022-07-29T04:45:16.147Z,100927.94
2022-07-29T04:46:07.101Z,100924.44
2022-07-29T04:46:53.629Z,100933.03
2022-07-29T04:47:40.272Z,100931.41
2022-07-29T04:48:28.855Z,100926.03
2022-07-29T04:49:15.595Z,100929.00
2022-07-29T04:50:02.366Z,100927.06
2022-07-29T04:50:48.830Z,100921.22
2022-07-29T04:51:35.957Z,100930.34
2022-07-29T04:52:24.323Z,100932.22
2022-07-29T04:53:10.924Z,100922.78
2022-07-29T04:53:57.504Z,100923.88
2022-07-29T04:54:43.958Z,100924.69
2022-07-29T04:55:30.704Z,100925.50
2022-07-29T04:56:17.201Z,100927.38
2022-07-29T04:57:03.772Z,100932.78
2022-07-29T04:57:50.278Z,100931.16
2022-07-29T04:58:38.266Z,100930.34
2022-07-29T04:59:25.813Z,100927.38
2022-07-29T05:00:12.708Z,100932.19
2022-07-29T05:01:09.388Z,100931.94
2022-07-29T05:01:56.061Z,100934.91
2022-07-29T05:02:43.028Z,100936.78
2022-07-29T05:03:29.541Z,100935.41
2022-07-29T05:04:16.321Z,100933.28
2022-07-29T05:05:03.418Z,100930.28
2022-07-29T05:05:49.959Z,100942.06
2022-07-29T05:06:36.489Z,100936.16
2022-07-29T05:07:23.229Z,100941.00
2022-07-29T05:08:09.750Z,100933.75
2022-07-29T05:08:56.432Z,100947.72
2022-07-29T05:09:42.913Z,100945.28
2022-07-29T05:10:29.743Z,100937.25
2022-07-29T05:11:21.330Z,100956.03
2022-07-29T05:12:09.475Z,100953.63
2022-07-29T05:12:56.333Z,100951.19
2022-07-29T05:13:45.332Z,100954.69
2022-07-29T05:14:33.690Z,100957.63
2022-07-29T05:15:20.835Z,100952.81
2022-07-29T05:16:09.363Z,100957.06
2022-07-29T05:16:57.626Z,100958.44
2022-07-29T05:17:45.062Z,100959.25
2022-07-29T05:18:31.748Z,100953.06
2022-07-29T05:19:18.721Z,100949.00
2022-07-29T05:20:06.944Z,100953.31
2022-07-29T05:20:53.460Z,100958.19
2022-07-29T05:21:40.157Z,100957.91
2022-07-29T05:22:26.665Z,100955.97
2022-07-29T05:23:16.538Z,100955.19
2022-07-29T05:24:03.269Z,100955.97
2022-07-29T05:24:49.760Z,100958.66
2022-07-29T05:25:43.348Z,100958.63
2022-07-29T05:26:30.919Z,100958.13
2022-07-29T05:27:17.393Z,100958.09
2022-07-29T05:28:04.030Z,100949.19
2022-07-29T05:28:50.533Z,100954.56
2022-07-29T05:29:43.753Z,100950.78
2022-07-29T05:30:32.408Z,100955.91
2022-07-29T05:31:19.545Z,100949.91
2022-07-29T05:32:06.388Z,100957.44
2022-07-29T05:32:52.908Z,100956.91
2022-07-29T05:33:39.406Z,100957.44
2022-07-29T05:34:25.980Z,100951.00
2022-07-29T05:35:14.100Z,100950.97
2022-07-29T05:36:01.227Z,100958.16
2022-07-29T05:36:48.002Z,100958.16
2022-07-29T05:37:34.717Z,100955.69
2022-07-29T05:38:21.256Z,100955.47
2022-07-29T05:39:07.784Z,100964.88
2022-07-29T05:39:56.731Z,100964.31
2022-07-29T05:40:43.918Z,100969.16
2022-07-29T05:41:33.391Z,100969.44
2022-07-29T05:42:19.999Z,100969.44
2022-07-29T05:43:08.051Z,100959.75
2022-07-29T05:43:54.488Z,100969.38
2022-07-29T05:44:41.122Z,100972.06
2022-07-29T05:45:28.371Z,100971.75
2022-07-29T05:46:15.104Z,100970.13
2022-07-29T05:47:01.664Z,100971.94
2022-07-29T05:47:48.223Z,100966.28
2022-07-29T05:48:34.733Z,100968.19
2022-07-29T05:49:23.161Z,100968.19
2022-07-29T05:50:14.157Z,100975.13
2022-07-29T05:51:01.127Z,100969.72
2022-07-29T05:51:49.726Z,100967.03
2022-07-29T05:52:36.266Z,100976.19
2022-07-29T05:53:23.237Z,100983.41
2022-07-29T05:54:09.788Z,100983.63
2022-07-29T05:54:57.206Z,100991.47
2022-07-29T05:55:43.691Z,100985.00
2022-07-29T05:56:30.606Z,100985.94
2022-07-29T05:57:18.922Z,100989.66
2022-07-29T05:58:05.365Z,100998.75
2022-07-29T05:58:52.542Z,100993.13
2022-07-29T05:59:39.474Z,100991.81
2022-07-29T06:00:26.235Z,100994.19
2022-07-29T06:01:12.940Z,101002.53
2022-07-29T06:02:00.119Z,101005.00
2022-07-29T06:02:47.505Z,101003.06
2022-07-29T06:03:35.576Z,101003.88
2022-07-29T06:04:22.315Z,101006.81
2022-07-29T06:05:17.281Z,101003.06
2022-07-29T06:06:04.284Z,101008.84
2022-07-29T06:06:50.810Z,101011.56
2022-07-29T06:07:37.342Z,101019.88
2022-07-29T06:08:25.309Z,101017.50
2022-07-29T06:09:12.801Z,101011.88
2022-07-29T06:10:00.381Z,101020.28
2022-07-29T06:10:47.273Z,101014.31
2022-07-29T06:11:33.934Z,101019.69
2022-07-29T06:12:21.487Z,101023.41
2022-07-29T06:13:08.019Z,101023.16
2022-07-29T06:13:54.569Z,101018.53
2022-07-29T06:14:41.159Z,101024.16
2022-07-29T06:15:30.101Z,101018.47
2022-07-29T06:16:16.765Z,101019.78
2022-07-29T06:17:17.540Z,101025.88
2022-07-29T06:18:04.623Z,101022.66
2022-07-29T06:18:51.136Z,101026.41
2022-07-29T06:19:37.727Z,101026.34
2022-07-29T06:20:27.080Z,101032.25
2022-07-29T06:21:13.850Z,101031.09
2022-07-29T06:22:00.339Z,101026.28
2022-07-29T06:22:46.898Z,101026.69
2022-07-29T06:23:33.472Z,101021.97
2022-07-29T06:24:20.384Z,101019.38
2022-07-29T06:25:07.641Z,101021.78
2022-07-29T06:25:54.363Z,101022.81
2022-07-29T06:26:41.608Z,101027.34
2022-07-29T06:27:28.067Z,101022.53
2022-07-29T06:28:14.569Z,101027.06
2022-07-29T06:29:01.058Z,101025.03
2022-07-29T06:29:47.559Z,101024.44
2022-07-29T06:30:34.292Z,101026.84
2022-07-29T06:31:20.947Z,101025.06
2022-07-29T06:32:08.169Z,101025.03
2022-07-29T06:32:54.700Z,101023.56
2022-07-29T06:33:41.449Z,101025.97
2022-07-29T06:34:28.020Z,101024.28
2022-07-29T06:36:22.923Z,101028.22
2022-07-29T06:37:15.368Z,101032.28
2022-07-29T06:38:04.317Z,101033.81
2022-07-29T06:39:11.734Z,101031.81
2022-07-29T06:40:17.601Z,101032.84
2022-07-29T06:41:05.917Z,101028.78
2022-07-29T06:41:52.486Z,101031.25
2022-07-29T06:42:45.272Z,101024.97
2022-07-29T06:43:50.162Z,101027.63
2022-07-29T06:44:37.627Z,101030.59
2022-07-29T06:45:25.160Z,101034.50
2022-07-29T06:46:18.514Z,101041.00
2022-07-29T06:47:05.225Z,101045.00
2022-07-29T06:47:51.785Z,101043.25
2022-07-29T06:48:39.159Z,101041.91
2022-07-29T06:49:27.075Z,101037.50
2022-07-29T06:50:14.910Z,101041.16
2022-07-29T06:51:01.625Z,101037.84
2022-07-29T06:51:48.167Z,101046.00
2022-07-29T06:52:34.645Z,101041.25
2022-07-29T06:53:21.476Z,101044.53
2022-07-29T06:54:08.227Z,101035.28
2022-07-29T06:54:55.903Z,101037.84
2022-07-29T06:55:43.238Z,101034.03
2022-07-29T06:56:39.315Z,101031.94
2022-07-29T06:57:27.262Z,101035.63
2022-07-29T06:58:16.876Z,101035.16
2022-07-29T06:59:11.973Z,101031.69
2022-07-29T06:59:58.475Z,101035.16
2022-07-29T07:00:45.998Z,101037.56
2022-07-29T07:01:32.732Z,101030.59
2022-07-29T07:02:19.362Z,101025.78
2022-07-29T07:03:05.880Z,101024.94
2022-07-29T07:03:52.409Z,101026.28
2022-07-29T07:04:38.958Z,101019.53
2022-07-29T07:05:25.525Z,101025.53
2022-07-29T07:06:15.120Z,101015.00
2022-07-29T07:07:01.787Z,101024.69
2022-07-29T07:07:48.268Z,101023.66
2022-07-29T07:08:34.760Z,101021.03
2022-07-29T07:09:21.289Z,101022.16
2022-07-29T07:10:08.547Z,101018.22
2022-07-29T07:10:56.218Z,101021.75
2022-07-29T07:11:42.663Z,101027.19
2022-07-29T07:12:29.129Z,101027.78
2022-07-29T07:13:18.016Z,101031.28
2022-07-29T07:14:04.619Z,101023.25
2022-07-29T07:14:51.151Z,101025.31
2022-07-29T07:15:39.581Z,101028.56
2022-07-29T07:16:26.541Z,101027.50
2022-07-29T07:17:13.015Z,101026.22
2022-07-29T07:18:00.729Z,101027.03
2022-07-29T07:18:47.201Z,101028.88
2022-07-29T07:19:33.744Z,101026.63
2022-07-29T07:20:20.444Z,101027.56
2022-07-29T07:21:07.064Z,101027.25
2022-07-29T07:21:54.253Z,101028.22
2022-07-29T07:22:44.731Z,101031.56
2022-07-29T07:23:31.253Z,101022.44
2022-07-29T07:24:18.134Z,101027.44
2022-07-29T07:25:05.299Z,101033.84
2022-07-29T07:25:52.116Z,101025.72
2022-07-29T07:26:40.650Z,101021.91
2022-07-29T07:27:28.324Z,101020.81
2022-07-29T07:28:14.839Z,101027.25
2022-07-29T07:29:01.369Z,101029.09
2022-07-29T07:29:47.973Z,101023.94
2022-07-29T07:30:34.540Z,101022.19
2022-07-29T07:31:21.169Z,101021.56
2022-07-29T07:32:08.589Z,101025.75
2022-07-29T07:32:56.208Z,101027.06
2022-07-29T07:33:42.822Z,101030.66
2022-07-29T07:34:30.950Z,101029.06
2022-07-29T07:35:17.704Z,101028.50
2022-07-29T07:36:04.831Z,101024.72
2022-07-29T07:36:51.269Z,101025.22
2022-07-29T07:37:39.153Z,101028.88
2022-07-29T07:38:25.620Z,101026.69
2022-07-29T07:39:12.150Z,101032.75
2022-07-29T07:39:59.069Z,101031.22
2022-07-29T07:40:47.319Z,101028.81
2022-07-29T07:41:33.778Z,101032.16
2022-07-29T07:42:20.594Z,101032.59
2022-07-29T07:43:07.191Z,101032.97
2022-07-29T07:43:53.701Z,101031.06
2022-07-29T07:45:03.712Z,101036.81
2022-07-29T07:45:47.415Z,101031.69
2022-07-29T07:46:33.933Z,101037.59
2022-07-29T07:47:20.880Z,101040.00
2022-07-29T07:48:11.039Z,101029.00
2022-07-29T07:48:57.534Z,101032.97
2022-07-29T07:49:44.012Z,101031.38
2022-07-29T07:50:31.727Z,101031.91
2022-07-29T07:51:19.697Z,101031.06
2022-07-29T07:52:06.201Z,101029.59
2022-07-29T07:52:55.975Z,101026.91
2022-07-29T07:53:42.465Z,101033.38
2022-07-29T07:54:29.194Z,101022.59
2022-07-29T07:55:15.965Z,101023.34
2022-07-29T07:56:11.477Z,101016.19
2022-07-29T07:56:59.045Z,101015.34
2022-07-29T07:57:46.456Z,101020.13
2022-07-29T07:58:33.471Z,101021.09
2022-07-29T07:59:20.296Z,101021.75
2022-07-29T08:00:07.595Z,101014.19
2022-07-29T08:00:59.357Z,101016.66
2022-07-29T08:01:54.993Z,101024.53
2022-07-29T08:02:44.026Z,101027.28
2022-07-29T08:03:31.298Z,101020.66
2022-07-29T08:04:22.093Z,101027.06
2022-07-29T08:05:17.663Z,101020.13
2022-07-29T08:06:06.651Z,101027.22
2022-07-29T08:06:55.129Z,101033.13
2022-07-29T08:07:41.637Z,101032.81
2022-07-29T08:08:28.247Z,101030.44
2022-07-29T08:09:28.842Z,101036.63
2022-07-29T08:10:39.496Z,101031.59
2022-07-29T08:11:26.203Z,101038.34
2022-07-29T08:12:12.912Z,101030.75
2022-07-29T08:12:59.980Z,101029.22
2022-07-29T08:13:48.367Z,101032.38
2022-07-29T08:14:35.066Z,101036.09
2022-07-29T08:15:21.681Z,101035.16
2022-07-29T08:16:13.960Z,101029.47
2022-07-29T08:17:01.071Z,101029.63
2022-07-29T08:17:48.187Z,101031.53
2022-07-29T08:18:36.125Z,101032.13
2022-07-29T08:19:22.899Z,101024.28
2022-07-29T08:20:18.373Z,101030.00
2022-07-29T08:21:05.157Z,101029.63
2022-07-29T08:21:53.871Z,101022.56
2022-07-29T08:22:40.712Z,101019.38
2022-07-29T08:23:46.249Z,101027.91
2022-07-29T08:24:47.301Z,101018.72
2022-07-29T08:25:34.781Z,101026.25
2022-07-29T08:26:31.508Z,101027.88
2022-07-29T08:27:41.768Z,101019.28
2022-07-29T08:28:27.189Z,101032.78
2022-07-29T08:29:18.326Z,101024.47
2022-07-29T08:30:08.213Z,101028.63
2022-07-29T08:30:55.295Z,101026.72
2022-07-29T08:31:41.934Z,101025.72
2022-07-29T08:32:51.869Z,101024.91
2022-07-29T08:33:36.485Z,101031.47
2022-07-29T08:34:27.933Z,101018.94
2022-07-29T08:35:14.826Z,101025.22
2022-07-29T08:36:01.513Z,101024.84
2022-07-29T08:36:50.851Z,101032.72
2022-07-29T08:37:38.156Z,101016.97
2022-07-29T08:38:24.947Z,101020.84
2022-07-29T08:39:11.782Z,101020.94
2022-07-29T08:39:59.565Z,101020.72
2022-07-29T08:40:47.845Z,101014.69
2022-07-29T08:41:34.854Z,101006.44
2022-07-29T08:42:23.618Z,101011.06
2022-07-29T08:43:14.912Z,101016.59
2022-07-29T08:44:01.615Z,101010.09
2022-07-29T08:44:49.948Z,101005.31
2022-07-29T08:45:51.169Z,101012.88
2022-07-29T08:46:40.799Z,101005.66
2022-07-29T08:47:29.002Z,101006.84
2022-07-29T08:48:21.997Z,101004.22
2022-07-29T08:49:09.114Z,101003.47
2022-07-29T08:49:55.577Z,101012.22
2022-07-29T08:50:43.760Z,101009.47
2022-07-29T08:51:36.447Z,101010.09
2022-07-29T08:52:39.199Z,101004.78
2022-07-29T08:53:29.105Z,101007.09
2022-07-29T08:54:19.544Z,101011.50
2022-07-29T08:55:08.758Z,101012.97
2022-07-29T08:55:56.979Z,101006.97
2022-07-29T08:56:45.953Z,101008.13
2022-07-29T08:57:35.957Z,101007.06
2022-07-29T08:58:26.248Z,101004.56
2022-07-29T08:59:15.586Z,101001.38
2022-07-29T09:00:12.100Z,101001.06
2022-07-29T09:01:04.358Z,101001.56
2022-07-29T09:01:55.713Z,101005.06
2022-07-29T09:02:53.215Z,101005.41
2022-07-29T09:03:41.551Z,101003.50
2022-07-29T09:04:33.034Z,101007.59
2022-07-29T09:05:20.678Z,101005.72
2022-07-29T09:06:09.809Z,100998.78
2022-07-29T09:07:04.810Z,101004.00
2022-07-29T09:07:52.028Z,101004.13
2022-07-29T09:08:40.461Z,101004.69
2022-07-29T09:09:28.730Z,101011.06
2022-07-29T09:10:15.785Z,101001.88
2022-07-29T09:11:05.298Z,101004.28
2022-07-29T09:11:54.999Z,101004.06
2022-07-29T09:12:41.886Z,101004.78
2022-07-29T09:13:28.524Z,101005.00
2022-07-29T09:14:15.801Z,101003.31
2022-07-29T09:15:04.186Z,101015.13
2022-07-29T09:15:52.820Z,101015.13
2022-07-29T09:17:08.873Z,101010.53
2022-07-29T09:17:57.432Z,101013.94
2022-07-29T09:18:46.515Z,101016.94
2022-07-29T09:19:38.686Z,101016.06
2022-07-29T09:20:51.164Z,101010.13
2022-07-29T09:22:00.564Z,101014.84
2022-07-29T09:22:53.745Z,101014.25
2022-07-29T09:23:42.846Z,101011.84
2022-07-29T09:24:49.492Z,101008.72
2022-07-29T09:25:38.702Z,101020.25
2022-07-29T09:26:30.793Z,101017.34
2022-07-29T09:27:24.641Z,101013.56
2022-07-29T09:28:11.968Z,101006.94
2022-07-29T09:29:01.813Z,101010.03
2022-07-29T09:30:02.803Z,101013.47
2022-07-29T09:30:53.793Z,101013.34
2022-07-29T09:31:45.329Z,101019.25